Time;durP1;ratioP1;P1;durP2;ratioP2;P2;SDS_P1;SDS_P2;PMS_P1;PMS_P2;Temp;Humidity;BMP_temperature;BMP_pressure;BME280_temperature;BME280_humidity;BME280_pressure;Samples;Min_cycle;Max_cycle;Signal;HPM_P1;HPM_P2
2024/01/08 05:07:18;;;;;;;0.40;0.40;;;-0.70;99.90;;;;;;4988125;23;20267;-68
2024/01/08 05:09:44;;;;;;;0.50;0.50;;;-0.70;99.90;;;;;;4937354;29;20197;-68
2024/01/08 05:12:09;;;;;;;0.40;0.40;;;-0.70;99.90;;;;;;4937226;29;20173;-66
2024/01/08 05:14:35;;;;;;;0.40;0.40;;;-0.70;99.90;;;;;;4936867;29;20169;-65
2024/01/08 05:17:01;;;;;;;0.40;0.40;;;-0.70;99.90;;;;;;4936879;29;20216;-65
2024/01/08 05:19:26;;;;;;;0.37;0.37;;;-0.70;99.90;;;;;;4936881;29;20225;-67
2024/01/08 05:21:53;;;;;;;0.40;0.40;;;-0.70;99.90;;;;;;4936833;29;20638;-64
2024/01/08 05:24:18;;;;;;;0.30;0.30;;;-0.70;99.90;;;;;;4936709;29;20193;-68
2024/01/08 05:26:44;;;;;;;0.40;0.40;;;-0.80;99.90;;;;;;4935568;29;20236;-66
2024/01/08 05:29:09;;;;;;;0.40;0.40;;;-0.80;99.90;;;;;;4937025;29;20184;-68
2024/01/08 05:31:35;;;;;;;0.83;0.83;;;-0.80;99.90;;;;;;4937070;29;20176;-66
2024/01/08 05:34:01;;;;;;;0.40;0.40;;;-0.80;99.90;;;;;;4936841;29;20186;-67
2024/01/08 05:36:26;;;;;;;0.40;0.40;;;-0.80;99.90;;;;;;4935646;29;20213;-67
2024/01/08 05:38:52;;;;;;;0.40;0.40;;;-0.80;99.90;;;;;;4937214;29;20173;-67
2024/01/08 05:41:20;;;;;;;0.50;0.50;;;-0.80;99.90;;;;;;4936941;29;20700;-65
2024/01/08 05:43:46;;;;;;;0.40;0.40;;;-0.90;99.90;;;;;;4936976;29;20173;-67
2024/01/08 05:46:11;;;;;;;0.40;0.40;;;-0.90;99.90;;;;;;4936234;29;20554;-67
2024/01/08 05:48:37;;;;;;;0.30;0.30;;;-0.90;99.90;;;;;;4936734;29;20179;-65
2024/01/08 05:51:09;;;;;;;0.40;0.40;;;-0.90;99.90;;;;;;4936677;29;20641;-65
2024/01/08 05:53:35;;;;;;;0.40;0.40;;;-0.90;99.90;;;;;;4936524;29;20170;-67
2024/01/08 05:56:02;;;;;;;0.40;0.40;;;-0.90;99.90;;;;;;4936057;29;20209;-68
2024/01/08 05:58:28;;;;;;;0.45;0.45;;;-0.90;99.90;;;;;;4936701;29;20176;-65
2024/01/08 06:00:53;;;;;;;0.40;0.40;;;-0.90;99.90;;;;;;4936448;29;20667;-64
2024/01/08 06:03:22;;;;;;;0.40;0.40;;;-0.90;99.90;;;;;;4936569;29;20182;-68
2024/01/08 06:05:49;;;;;;;0.40;0.40;;;-0.90;99.90;;;;;;4935995;29;20197;-65
2024/01/08 06:08:14;;;;;;;0.30;0.30;;;-0.90;99.90;;;;;;4936347;29;20510;-66
2024/01/08 06:10:40;;;;;;;0.30;0.30;;;-0.90;99.90;;;;;;4936315;29;20216;-66
2024/01/08 06:13:08;;;;;;;0.47;0.47;;;-1.00;99.90;;;;;;4936446;29;20433;-66
2024/01/08 06:15:34;;;;;;;0.50;0.50;;;-0.90;99.90;;;;;;4935715;29;20212;-69
2024/01/08 06:18:00;;;;;;;0.40;0.40;;;-0.90;99.90;;;;;;4930620;29;20188;-66
2024/01/08 06:20:25;;;;;;;0.43;0.43;;;-1.00;99.90;;;;;;4926867;29;20180;-65
2024/01/08 06:22:51;;;;;;;0.40;0.40;;;-1.00;99.90;;;;;;4924815;29;20177;-69
2024/01/08 06:25:18;;;;;;;0.47;0.47;;;-1.00;99.90;;;;;;4920225;29;20241;-65
2024/01/08 06:27:43;;;;;;;0.40;0.40;;;-1.00;99.90;;;;;;4917142;29;20174;-69
2024/01/08 06:30:09;;;;;;;0.40;0.40;;;-1.00;99.90;;;;;;4918023;29;20182;-66
2024/01/08 06:32:35;;;;;;;0.40;0.40;;;-1.10;99.90;;;;;;4936069;29;20214;-68
2024/01/08 06:35:01;;;;;;;0.40;0.40;;;-1.10;99.90;;;;;;4935549;29;20203;-67
2024/01/08 06:37:26;;;;;;;0.40;0.40;;;-1.00;99.90;;;;;;4920544;29;20621;-67
2024/01/08 06:39:52;;;;;;;0.50;0.50;;;-1.00;99.90;;;;;;4916902;29;20252;-65
2024/01/08 06:42:18;;;;;;;0.45;0.45;;;-1.00;99.90;;;;;;4917091;29;20220;-69
2024/01/08 06:44:43;;;;;;;0.40;0.40;;;-1.00;99.90;;;;;;4916433;29;20168;-68
2024/01/08 06:47:09;;;;;;;0.50;0.50;;;-1.00;99.90;;;;;;4919447;29;20197;-65
2024/01/08 06:49:35;;;;;;;0.50;0.50;;;-1.00;99.90;;;;;;4936362;29;20554;-67
2024/01/08 06:52:00;;;;;;;0.57;0.57;;;-1.00;99.90;;;;;;4936178;29;20574;-67
2024/01/08 06:54:26;;;;;;;0.40;0.40;;;-1.00;99.90;;;;;;4927226;29;20435;-68
2024/01/08 06:56:52;;;;;;;0.40;0.40;;;-1.10;99.90;;;;;;4925642;29;20209;-64
2024/01/08 06:59:18;;;;;;;0.40;0.40;;;-1.10;99.90;;;;;;4935833;29;20172;-64
2024/01/08 07:01:44;;;;;;;0.63;0.63;;;-1.10;99.90;;;;;;4932472;29;20605;-67
2024/01/08 07:04:10;;;;;;;0.50;0.50;;;-1.00;99.90;;;;;;4916567;29;20321;-67
2024/01/08 07:06:35;;;;;;;0.50;0.50;;;-1.10;99.90;;;;;;4924006;29;20442;-66
2024/01/08 07:09:01;;;;;;;0.40;0.40;;;-1.00;99.90;;;;;;4934131;29;20280;-66
2024/01/08 07:11:26;;;;;;;0.40;0.40;;;-1.00;99.90;;;;;;4934106;29;20593;-66
2024/01/08 07:13:52;;;;;;;0.50;0.50;;;-1.10;99.90;;;;;;4934544;29;20181;-66
2024/01/08 07:16:18;;;;;;;0.40;0.40;;;-1.00;99.90;;;;;;4921441;29;20244;-65
2024/01/08 07:18:45;;;;;;;0.57;0.57;;;-1.00;99.90;;;;;;4933559;29;20663;-65
2024/01/08 07:21:16;;;;;;;0.40;0.40;;;-1.00;99.90;;;;;;4935735;29;20174;-65
2024/01/08 07:23:44;;;;;;;0.55;0.55;;;-1.00;99.90;;;;;;4930215;29;20177;-64
2024/01/08 07:26:10;;;;;;;0.50;0.50;;;-1.00;99.90;;;;;;4916233;29;20202;-65
2024/01/08 07:28:35;;;;;;;0.50;0.50;;;-1.00;99.90;;;;;;4917716;29;20193;-64
2024/01/08 07:31:03;;;;;;;0.63;0.63;;;-1.00;99.90;;;;;;4924385;29;20216;-65
2024/01/08 07:33:29;;;;;;;0.57;0.57;;;-1.00;99.90;;;;;;4933762;29;20553;-71
2024/01/08 07:35:55;;;;;;;0.50;0.50;;;-1.00;99.90;;;;;;4921117;29;20214;-61
2024/01/08 07:38:21;;;;;;;0.40;0.40;;;-1.00;99.90;;;;;;4932721;29;20224;-62
2024/01/08 07:40:47;;;;;;;0.47;0.47;;;-1.00;99.90;;;;;;4932668;29;20209;-61
2024/01/08 07:43:13;;;;;;;0.50;0.50;;;-1.00;99.90;;;;;;4934695;29;20257;-64
2024/01/08 07:45:39;;;;;;;0.40;0.40;;;-0.90;99.90;;;;;;4933747;29;20441;-63
2024/01/08 07:48:05;;;;;;;0.40;0.40;;;-0.90;99.90;;;;;;4935069;29;20537;-63
2024/01/08 07:50:31;;;;;;;0.50;0.50;;;-0.90;99.90;;;;;;4935929;29;20435;-67
2024/01/08 07:52:56;;;;;;;0.40;0.40;;;-0.90;99.90;;;;;;4938409;29;20818;-63
2024/01/08 07:55:22;;;;;;;0.50;0.50;;;-0.90;99.90;;;;;;4926454;29;20206;-64
2024/01/08 07:57:48;;;;;;;0.40;0.40;;;-0.90;99.90;;;;;;4926802;29;20213;-62
2024/01/08 08:00:14;;;;;;;0.40;0.40;;;-0.90;99.90;;;;;;4929033;29;20171;-62
2024/01/08 08:02:40;;;;;;;0.40;0.40;;;-0.90;99.90;;;;;;4923164;29;20177;-63
2024/01/08 08:05:05;;;;;;;0.50;0.50;;;-0.90;99.90;;;;;;4930912;29;20191;-67
2024/01/08 08:07:35;;;;;;;0.50;0.50;;;-0.80;99.90;;;;;;4919107;29;20587;-63
2024/01/08 08:10:01;;;;;;;0.40;0.40;;;-0.80;99.90;;;;;;4924137;29;20413;-63
2024/01/08 08:12:27;;;;;;;0.60;0.60;;;-0.80;99.90;;;;;;4924103;29;20179;-63
2024/01/08 08:14:53;;;;;;;0.40;0.40;;;-0.80;99.90;;;;;;4934246;29;20245;-63
2024/01/08 08:17:19;;;;;;;0.43;0.43;;;-0.80;99.90;;;;;;4935649;29;20761;-63
2024/01/08 08:19:45;;;;;;;0.40;0.40;;;-0.80;99.90;;;;;;4931451;29;20264;-62
2024/01/08 08:22:14;;;;;;;0.47;0.47;;;-0.80;99.90;;;;;;4928447;29;20182;-64
2024/01/08 08:24:41;;;;;;;0.40;0.40;;;-0.80;99.90;;;;;;4922916;29;20183;-64
2024/01/08 08:27:10;;;;;;;0.50;0.50;;;-0.80;99.90;;;;;;4925366;29;20262;-64
2024/01/08 08:29:41;;;;;;;0.40;0.40;;;-0.80;99.90;;;;;;4920044;29;20229;-65
2024/01/08 08:32:08;;;;;;;0.40;0.40;;;-0.70;99.90;;;;;;4921742;29;20173;-65
2024/01/08 08:34:34;;;;;;;0.40;0.40;;;-0.80;99.90;;;;;;4934253;29;20317;-65
2024/01/08 08:37:00;;;;;;;0.38;0.38;;;-0.80;99.90;;;;;;4929822;29;20210;-64
2024/01/08 08:39:25;;;;;;;0.40;0.40;;;-0.70;99.90;;;;;;4922522;29;20185;-65
2024/01/08 08:41:51;;;;;;;0.40;0.40;;;-0.70;99.90;;;;;;4918846;29;20240;-65
2024/01/08 08:44:17;;;;;;;0.40;0.40;;;-0.70;99.90;;;;;;4922781;29;20212;-64
2024/01/08 08:46:44;;;;;;;0.40;0.40;;;-0.70;99.90;;;;;;4936720;29;20197;-64
2024/01/08 08:49:10;;;;;;;0.40;0.40;;;-0.70;99.90;;;;;;4937110;29;20193;-63
2024/01/08 08:51:36;;;;;;;0.40;0.40;;;-0.70;99.90;;;;;;4935703;29;20232;-61
2024/01/08 08:54:03;;;;;;;0.30;0.30;;;-0.70;99.90;;;;;;4933725;29;20542;-68
2024/01/08 08:56:32;;;;;;;0.40;0.40;;;-0.70;99.90;;;;;;4919000;29;20209;-62
2024/01/08 08:58:58;;;;;;;0.30;0.30;;;-0.70;99.90;;;;;;4935289;29;20180;-62
2024/01/08 09:01:24;;;;;;;0.40;0.40;;;-0.70;99.90;;;;;;4936741;29;20187;-63
2024/01/08 09:03:49;;;;;;;0.50;0.50;;;-0.60;99.90;;;;;;4937082;29;20172;-63
2024/01/08 09:06:15;;;;;;;0.43;0.43;;;-0.60;99.90;;;;;;4936681;29;20197;-65
2024/01/08 09:08:41;;;;;;;0.40;0.40;;;-0.60;99.90;;;;;;4935068;29;20197;-62
2024/01/08 09:11:08;;;;;;;0.40;0.40;;;-0.60;99.90;;;;;;4936939;29;20169;-61
2024/01/08 09:13:33;;;;;;;0.40;0.40;;;-0.60;99.90;;;;;;4937155;29;20522;-62
2024/01/08 09:16:00;;;;;;;0.40;0.40;;;-0.60;99.90;;;;;;4936884;29;20204;-63
2024/01/08 09:18:26;;;;;;;0.40;0.40;;;-0.60;99.90;;;;;;4936447;29;20177;-64
2024/01/08 09:20:53;;;;;;;0.40;0.40;;;-0.60;99.90;;;;;;4936806;29;20189;-64
2024/01/08 09:23:19;;;;;;;0.30;0.30;;;-0.50;99.90;;;;;;4935428;29;20264;-63
2024/01/08 09:25:45;;;;;;;0.40;0.40;;;-0.50;99.90;;;;;;4935545;29;20280;-63
2024/01/08 09:28:11;;;;;;;0.40;0.40;;;-0.50;99.90;;;;;;4925040;29;20941;-64
2024/01/08 09:30:36;;;;;;;0.40;0.40;;;-0.50;99.90;;;;;;4917615;29;20265;-62
2024/01/08 09:33:02;;;;;;;0.40;0.40;;;-0.60;99.90;;;;;;4917920;29;20542;-62
2024/01/08 09:35:27;;;;;;;0.40;0.40;;;-0.60;99.90;;;;;;4932262;29;20267;-65
2024/01/08 09:37:53;;;;;;;0.40;0.40;;;-0.60;99.90;;;;;;4918051;29;20265;-65
2024/01/08 09:40:19;;;;;;;0.40;0.40;;;-0.60;99.90;;;;;;4918548;29;20212;-65
2024/01/08 09:42:45;;;;;;;0.40;0.40;;;-0.60;99.90;;;;;;4925043;29;20234;-64
2024/01/08 09:45:11;;;;;;;0.40;0.40;;;-0.50;99.90;;;;;;4934091;29;20209;-63
2024/01/08 09:47:40;;;;;;;0.40;0.40;;;-0.40;99.90;;;;;;4931902;29;20589;-64
2024/01/08 09:50:10;;;;;;;0.40;0.40;;;-0.40;99.90;;;;;;4937098;29;20177;-64
2024/01/08 09:52:41;;;;;;;0.57;0.57;;;-0.40;99.90;;;;;;4936479;29;20192;-67
2024/01/08 09:55:09;;;;;;;0.40;0.40;;;-0.30;99.90;;;;;;4931416;29;20292;-64
2024/01/08 09:57:35;;;;;;;0.40;0.40;;;-0.30;99.90;;;;;;4925545;29;20178;-66
2024/01/08 10:00:01;;;;;;;0.40;0.40;;;-0.40;99.90;;;;;;4920628;29;20180;-65
2024/01/08 10:02:26;;;;;;;0.40;0.40;;;-0.40;99.90;;;;;;4926202;29;20225;-65
2024/01/08 10:04:53;;;;;;;0.40;0.40;;;-0.30;99.90;;;;;;4925573;29;20204;-65
2024/01/08 10:07:19;;;;;;;0.40;0.40;;;-0.30;99.90;;;;;;4932635;29;20192;-64
2024/01/08 10:09:44;;;;;;;0.30;0.30;;;-0.20;99.90;;;;;;4925274;29;20231;-65
2024/01/08 10:12:10;;;;;;;0.40;0.40;;;-0.20;99.90;;;;;;4935730;29;20185;-65
2024/01/08 10:14:36;;;;;;;0.40;0.40;;;-0.30;99.90;;;;;;4933730;29;20490;-63
2024/01/08 10:17:03;;;;;;;0.40;0.40;;;-0.40;99.90;;;;;;4935119;29;20276;-65
2024/01/08 10:19:29;;;;;;;0.50;0.50;;;-0.40;99.90;;;;;;4936083;29;20165;-65
2024/01/08 10:22:11;;;;;;;0.40;0.40;;;-0.40;99.90;;;;;;4935550;29;20633;-64
2024/01/08 10:24:39;;;;;;;0.40;0.40;;;-0.40;99.90;;;;;;4932796;29;20198;-65
2024/01/08 10:27:08;;;;;;;0.50;0.50;;;-0.40;99.90;;;;;;4933938;29;20212;-64
2024/01/08 10:29:35;;;;;;;0.40;0.40;;;-0.40;99.90;;;;;;4935743;29;20232;-66
2024/01/08 10:32:00;;;;;;;0.45;0.45;;;-0.40;99.90;;;;;;4933884;29;20177;-65
2024/01/08 10:34:26;;;;;;;0.40;0.40;;;-0.40;99.90;;;;;;4935092;29;20232;-65
2024/01/08 10:36:55;;;;;;;0.40;0.40;;;-0.30;99.90;;;;;;4935635;29;20477;-65
2024/01/08 10:39:21;;;;;;;0.40;0.40;;;-0.30;99.90;;;;;;4935099;29;20428;-64
2024/01/08 10:41:47;;;;;;;0.60;0.60;;;-0.30;99.90;;;;;;4922266;29;20198;-64
2024/01/08 10:44:12;;;;;;;0.40;0.40;;;-0.20;99.90;;;;;;4934328;29;20212;-65
2024/01/08 10:46:50;;;;;;;0.43;0.43;;;-0.20;99.90;;;;;;4950134;29;20216;-64
2024/01/08 10:49:19;;;;;;;0.40;0.40;;;-0.20;99.90;;;;;;4935014;29;20184;-66
2024/01/08 10:51:47;;;;;;;0.40;0.40;;;-0.20;99.90;;;;;;4935820;29;20201;-64
2024/01/08 10:54:17;;;;;;;0.40;0.40;;;-0.20;99.90;;;;;;4934972;29;20178;-66
2024/01/08 10:56:47;;;;;;;0.40;0.40;;;-0.20;99.90;;;;;;4934768;29;20267;-62
2024/01/08 10:59:21;;;;;;;0.40;0.40;;;-0.20;99.90;;;;;;4930703;29;20173;-66
2024/01/08 11:01:47;;;;;;;0.50;0.50;;;-0.10;99.90;;;;;;4934699;29;20196;-64
2024/01/08 11:04:14;;;;;;;0.40;0.40;;;-0.10;99.90;;;;;;4927691;29;20186;-65
2024/01/08 11:06:42;;;;;;;0.40;0.40;;;0.00;99.90;;;;;;4934038;29;20222;-63
2024/01/08 11:09:32;;;;;;;0.40;0.40;;;0.00;99.90;;;;;;4932233;29;20200;-65
2024/01/08 11:11:58;;;;;;;0.40;0.40;;;0.00;99.90;;;;;;4935475;29;20173;-64
2024/01/08 11:14:27;;;;;;;0.40;0.40;;;0.10;99.90;;;;;;4933948;29;20568;-67
2024/01/08 11:16:53;;;;;;;0.40;0.40;;;0.20;99.90;;;;;;4919710;29;20273;-64
2024/01/08 11:19:18;;;;;;;0.30;0.30;;;0.20;99.90;;;;;;4923875;29;20268;-66
2024/01/08 11:21:57;;;;;;;0.40;0.40;;;0.20;99.90;;;;;;4935638;29;20405;-65
2024/01/08 11:24:24;;;;;;;0.40;0.40;;;0.10;99.90;;;;;;4932012;29;20260;-65
2024/01/08 11:26:51;;;;;;;0.50;0.50;;;0.20;99.90;;;;;;4917714;29;20233;-66
2024/01/08 11:29:18;;;;;;;0.40;0.40;;;0.30;99.90;;;;;;4938038;29;20252;-66
2024/01/08 11:31:46;;;;;;;0.40;0.40;;;0.20;99.70;;;;;;4931690;29;20538;-65
2024/01/08 11:34:30;;;;;;;0.30;0.30;;;0.20;99.40;;;;;;4938111;29;20169;-67
2024/01/08 11:37:23;;;;;;;0.50;0.50;;;0.20;99.50;;;;;;4937485;29;20219;-65
2024/01/08 11:39:50;;;;;;;0.40;0.40;;;0.30;99.80;;;;;;4932683;29;20177;-64
2024/01/08 11:42:18;;;;;;;0.40;0.40;;;0.30;99.40;;;;;;4931263;29;20248;-65
2024/01/08 11:44:44;;;;;;;0.30;0.30;;;0.40;99.40;;;;;;4936884;29;20177;-64
2024/01/08 11:47:10;;;;;;;0.43;0.43;;;0.40;99.50;;;;;;4935746;29;20204;-66
2024/01/08 11:49:35;;;;;;;0.43;0.43;;;0.40;99.40;;;;;;4938292;29;20508;-65
2024/01/08 11:52:01;;;;;;;0.40;0.40;;;0.40;99.70;;;;;;4928917;29;20650;-63
2024/01/08 11:54:27;;;;;;;0.40;0.40;;;0.40;99.80;;;;;;4931632;29;20185;-64
2024/01/08 11:56:53;;;;;;;0.40;0.40;;;0.40;99.50;;;;;;4925748;29;20241;-64
2024/01/08 11:59:39;;;;;;;0.30;0.30;;;0.40;99.30;;;;;;4937215;29;20268;-64
2024/01/08 12:02:13;;;;;;;0.40;0.40;;;0.40;99.00;;;;;;4928213;29;20442;-66
2024/01/08 12:04:39;;;;;;;0.40;0.40;;;0.40;99.10;;;;;;4938149;29;20537;-65
2024/01/08 12:07:04;;;;;;;0.40;0.40;;;0.30;98.90;;;;;;4933108;29;20213;-63
2024/01/08 12:09:31;;;;;;;0.40;0.40;;;0.30;99.00;;;;;;4936206;29;20217;-66
2024/01/08 12:12:07;;;;;;;0.40;0.40;;;0.30;98.90;;;;;;4936544;29;20185;-65
2024/01/08 12:14:34;;;;;;;0.50;0.50;;;0.30;99.20;;;;;;4931037;29;20304;-66
2024/01/08 12:17:03;;;;;;;0.30;0.30;;;0.40;99.50;;;;;;4937711;29;20216;-63
2024/01/08 12:19:36;;;;;;;0.30;0.30;;;0.50;99.40;;;;;;4938315;29;20248;-65
2024/01/08 12:22:03;;;;;;;0.30;0.30;;;0.50;98.90;;;;;;4938085;29;20169;-65
2024/01/08 12:24:28;;;;;;;0.30;0.30;;;0.60;99.00;;;;;;4937644;29;20174;-66
2024/01/08 12:27:03;;;;;;;0.43;0.43;;;0.60;99.00;;;;;;4937163;29;20252;-64
2024/01/08 12:29:29;;;;;;;0.40;0.40;;;0.60;98.80;;;;;;4919482;29;20174;-64
2024/01/08 12:31:56;;;;;;;0.30;0.30;;;0.60;98.80;;;;;;4919148;29;20638;-65
2024/01/08 12:34:21;;;;;;;0.40;0.40;;;0.60;99.00;;;;;;4918816;29;20190;-66
2024/01/08 12:36:47;;;;;;;0.30;0.30;;;0.70;98.90;;;;;;4918259;29;20285;-64
2024/01/08 12:39:13;;;;;;;0.40;0.40;;;0.70;98.80;;;;;;4936883;29;20244;-66
2024/01/08 12:41:38;;;;;;;0.30;0.30;;;0.80;98.60;;;;;;4937893;29;20645;-64
2024/01/08 12:44:07;;;;;;;0.50;0.50;;;0.80;98.40;;;;;;4918035;29;20710;-66
2024/01/08 12:46:32;;;;;;;0.40;0.40;;;0.70;98.50;;;;;;4918795;29;20201;-66
2024/01/08 12:48:58;;;;;;;0.40;0.40;;;0.60;98.40;;;;;;4918976;29;20175;-66
2024/01/08 12:51:24;;;;;;;0.40;0.40;;;0.50;98.30;;;;;;4918940;29;20253;-64
2024/01/08 12:53:49;;;;;;;0.37;0.37;;;0.50;98.40;;;;;;4919446;29;20200;-66
2024/01/08 12:56:15;;;;;;;0.40;0.40;;;0.50;98.70;;;;;;4918160;29;20213;-64
2024/01/08 12:58:42;;;;;;;0.30;0.30;;;0.50;98.30;;;;;;4919565;29;20229;-64
2024/01/08 13:01:07;;;;;;;0.40;0.40;;;0.40;98.40;;;;;;4918915;29;20173;-62
2024/01/08 13:03:33;;;;;;;0.40;0.40;;;0.40;98.80;;;;;;4918656;29;20201;-63
2024/01/08 13:05:59;;;;;;;0.43;0.43;;;0.40;98.60;;;;;;4918064;29;20194;-64
2024/01/08 13:08:24;;;;;;;0.40;0.40;;;0.40;98.90;;;;;;4933536;29;20436;-64
2024/01/08 13:10:50;;;;;;;0.40;0.40;;;0.50;99.00;;;;;;4937484;29;20308;-66
2024/01/08 13:13:16;;;;;;;0.40;0.40;;;0.50;99.00;;;;;;4937330;29;20170;-64
2024/01/08 13:15:42;;;;;;;0.40;0.40;;;0.50;99.10;;;;;;4935376;29;20507;-65
2024/01/08 13:18:09;;;;;;;0.40;0.40;;;0.50;99.20;;;;;;4924648;29;20209;-65
2024/01/08 13:20:34;;;;;;;0.40;0.40;;;0.50;99.10;;;;;;4918096;29;20170;-64
2024/01/08 13:23:00;;;;;;;0.40;0.40;;;0.60;99.10;;;;;;4918233;29;20257;-66
2024/01/08 13:25:26;;;;;;;0.30;0.30;;;0.60;99.10;;;;;;4920336;29;20721;-62
2024/01/08 13:27:52;;;;;;;0.30;0.30;;;0.60;99.10;;;;;;4936996;29;20495;-65
2024/01/08 13:30:19;;;;;;;0.40;0.40;;;0.70;99.10;;;;;;4937229;29;20181;-64
2024/01/08 13:32:44;;;;;;;0.30;0.30;;;0.80;99.70;;;;;;4936961;29;20256;-66
2024/01/08 13:35:11;;;;;;;0.30;0.30;;;0.80;99.90;;;;;;4934042;29;20292;-66
2024/01/08 13:37:37;;;;;;;0.40;0.40;;;0.80;99.90;;;;;;4917927;29;20209;-63
2024/01/08 13:40:03;;;;;;;0.40;0.40;;;0.80;99.90;;;;;;4918369;29;20599;-64
2024/01/08 13:42:28;;;;;;;0.30;0.30;;;0.80;99.90;;;;;;4917864;29;20171;-64
2024/01/08 13:44:54;;;;;;;0.30;0.30;;;0.70;99.90;;;;;;4917209;29;20572;-64
2024/01/08 13:47:19;;;;;;;0.50;0.50;;;0.60;99.90;;;;;;4934544;29;20216;-66
2024/01/08 13:49:45;;;;;;;0.40;0.40;;;0.50;99.90;;;;;;4936684;29;20178;-64
2024/01/08 13:52:11;;;;;;;0.30;0.30;;;0.50;99.90;;;;;;4936864;29;20642;-63
2024/01/08 13:54:37;;;;;;;0.50;0.50;;;0.40;99.90;;;;;;4936645;29;20425;-65
2024/01/08 13:57:02;;;;;;;0.40;0.40;;;0.30;99.90;;;;;;4921663;29;20217;-65
2024/01/08 13:59:28;;;;;;;0.33;0.33;;;0.20;99.90;;;;;;4917566;29;20256;-65
2024/01/08 14:01:54;;;;;;;0.43;0.43;;;0.20;99.90;;;;;;4917612;29;20166;-65
2024/01/08 14:04:21;;;;;;;0.40;0.40;;;0.10;99.90;;;;;;4915956;29;20188;-65
2024/01/08 14:06:46;;;;;;;0.40;0.40;;;0.00;99.90;;;;;;4929161;29;20456;-64
2024/01/08 14:09:16;;;;;;;0.40;0.40;;;0.00;99.90;;;;;;4936854;29;20169;-64
2024/01/08 14:11:41;;;;;;;0.50;0.50;;;-0.10;99.90;;;;;;4936428;29;20507;-63
2024/01/08 14:14:07;;;;;;;0.40;0.40;;;-0.10;99.90;;;;;;4936099;29;20177;-64
2024/01/08 14:16:32;;;;;;;0.80;0.80;;;-0.10;99.90;;;;;;4925636;29;20205;-64
2024/01/08 14:18:58;;;;;;;0.50;0.50;;;-0.10;99.90;;;;;;4916059;29;20273;-64
2024/01/08 14:21:24;;;;;;;0.40;0.40;;;-0.10;99.90;;;;;;4917415;29;20241;-65
2024/01/08 14:23:49;;;;;;;0.30;0.30;;;-0.20;99.90;;;;;;4917316;29;20186;-63
2024/01/08 14:26:15;;;;;;;0.40;0.40;;;-0.20;99.90;;;;;;4924147;29;20227;-64
2024/01/08 14:28:40;;;;;;;0.50;0.50;;;-0.30;99.90;;;;;;4936230;29;20182;-65
2024/01/08 14:31:10;;;;;;;0.40;0.40;;;-0.30;99.90;;;;;;4929776;29;20177;-63
2024/01/08 14:33:37;;;;;;;0.40;0.40;;;-0.30;99.90;;;;;;4917140;29;20174;-64
2024/01/08 14:36:03;;;;;;;0.30;0.30;;;-0.30;99.90;;;;;;4916242;29;20205;-64
2024/01/08 14:38:29;;;;;;;0.35;0.35;;;-0.40;99.90;;;;;;4917214;29;20185;-63
2024/01/08 14:40:55;;;;;;;0.30;0.30;;;-0.40;99.90;;;;;;4920556;29;20182;-63
2024/01/08 14:43:21;;;;;;;0.40;0.40;;;-0.50;99.90;;;;;;4935934;29;20252;-65
2024/01/08 14:45:49;;;;;;;0.40;0.40;;;-0.50;99.90;;;;;;4935603;29;20338;-65
2024/01/08 14:48:15;;;;;;;0.50;0.50;;;-0.60;99.90;;;;;;4934717;29;20443;-63
2024/01/08 14:50:40;;;;;;;0.30;0.30;;;-0.60;99.90;;;;;;4935446;29;20169;-64
2024/01/08 14:53:06;;;;;;;0.77;0.77;;;-0.60;99.90;;;;;;4936167;29;20188;-64
2024/01/08 14:55:31;;;;;;;0.87;0.87;;;-0.60;99.90;;;;;;4935265;29;20228;-64
2024/01/08 14:57:57;;;;;;;0.40;0.40;;;-0.60;99.90;;;;;;4935850;29;20169;-64
2024/01/08 15:00:25;;;;;;;0.40;0.40;;;-0.60;99.90;;;;;;4938334;29;20597;-66
2024/01/08 15:02:52;;;;;;;0.40;0.40;;;-0.70;99.90;;;;;;4921908;29;20192;-64
2024/01/08 15:05:18;;;;;;;0.50;0.50;;;-0.70;99.90;;;;;;4920247;29;20585;-65
2024/01/08 15:07:43;;;;;;;0.40;0.40;;;-0.80;99.90;;;;;;4920509;29;20186;-66
2024/01/08 15:10:09;;;;;;;0.40;0.40;;;-0.90;99.90;;;;;;4920650;29;20865;-64
2024/01/08 15:12:35;;;;;;;0.47;0.47;;;-1.00;99.90;;;;;;4921011;29;20532;-64
2024/01/08 15:15:00;;;;;;;0.40;0.40;;;-1.00;99.90;;;;;;4919911;29;20194;-64
2024/01/08 15:17:26;;;;;;;0.50;0.50;;;-1.10;99.90;;;;;;4920468;29;20418;-65
2024/01/08 15:19:52;;;;;;;0.50;0.50;;;-1.10;99.90;;;;;;4925392;29;20178;-66
2024/01/08 15:22:17;;;;;;;0.40;0.40;;;-1.20;99.90;;;;;;4938589;29;20813;-67
2024/01/08 15:24:43;;;;;;;0.60;0.60;;;-1.20;99.90;;;;;;4938454;29;20173;-64
2024/01/08 15:27:09;;;;;;;0.50;0.50;;;-1.10;99.90;;;;;;4939055;29;20193;-66
2024/01/08 15:29:34;;;;;;;0.30;0.30;;;-1.10;99.90;;;;;;4938663;29;20211;-65
2024/01/08 15:32:00;;;;;;;0.47;0.47;;;-1.20;99.90;;;;;;4938987;29;20665;-68
2024/01/08 15:34:26;;;;;;;0.40;0.40;;;-1.10;99.90;;;;;;4938612;29;20179;-67
2024/01/08 15:36:52;;;;;;;0.40;0.40;;;-1.10;99.90;;;;;;4938273;29;20619;-66
2024/01/08 15:39:18;;;;;;;0.40;0.40;;;-1.10;99.90;;;;;;4926190;29;20436;-65
2024/01/08 15:41:44;;;;;;;0.40;0.40;;;-1.20;99.90;;;;;;4919217;29;20172;-67
2024/01/08 15:44:09;;;;;;;0.40;0.40;;;-1.20;99.90;;;;;;4919817;29;20174;-67
2024/01/08 15:46:40;;;;;;;0.50;0.50;;;-1.20;99.90;;;;;;4919647;29;20472;-68
2024/01/08 15:49:06;;;;;;;0.40;0.40;;;-1.20;99.90;;;;;;4919946;29;20200;-66
2024/01/08 15:51:31;;;;;;;0.30;0.30;;;-1.20;99.90;;;;;;4919975;29;20170;-65
2024/01/08 15:53:57;;;;;;;0.40;0.40;;;-1.10;99.90;;;;;;4936445;29;20188;-66
2024/01/08 15:56:22;;;;;;;0.40;0.40;;;-1.10;99.90;;;;;;4925896;29;20638;-66
2024/01/08 15:58:49;;;;;;;0.40;0.40;;;-1.10;99.90;;;;;;4937344;29;20181;-65
2024/01/08 16:01:15;;;;;;;0.40;0.40;;;-1.10;99.90;;;;;;4932718;29;20187;-66
2024/01/08 16:03:40;;;;;;;0.40;0.40;;;-1.10;99.90;;;;;;4932812;29;20176;-64
2024/01/08 16:06:06;;;;;;;0.40;0.40;;;-1.10;99.90;;;;;;4938231;29;20199;-67
2024/01/08 16:08:32;;;;;;;0.40;0.40;;;-1.10;99.90;;;;;;4935147;29;20325;-68
2024/01/08 16:10:57;;;;;;;0.50;0.50;;;-1.10;99.90;;;;;;4934078;29;20245;-67
2024/01/08 16:13:23;;;;;;;0.40;0.40;;;-1.20;99.90;;;;;;4933307;29;20552;-65
2024/01/08 16:15:48;;;;;;;0.50;0.50;;;-1.20;99.90;;;;;;4937473;29;20207;-65
2024/01/08 16:18:14;;;;;;;0.40;0.40;;;-1.20;99.90;;;;;;4952662;29;20181;-65
2024/01/08 16:20:40;;;;;;;0.30;0.30;;;-1.20;99.90;;;;;;4937475;29;20541;-65
2024/01/08 16:23:06;;;;;;;0.40;0.40;;;-1.20;99.90;;;;;;4937087;29;20256;-63
2024/01/08 16:25:31;;;;;;;0.40;0.40;;;-1.20;99.90;;;;;;4937644;29;20195;-66
2024/01/08 16:27:57;;;;;;;0.40;0.40;;;-1.20;99.90;;;;;;4937962;29;20177;-63
2024/01/08 16:30:22;;;;;;;0.50;0.50;;;-1.20;99.90;;;;;;4936549;29;20634;-65
2024/01/08 16:32:48;;;;;;;0.40;0.40;;;-1.30;99.90;;;;;;4936891;29;20519;-65
2024/01/08 16:35:14;;;;;;;0.40;0.40;;;-1.30;99.90;;;;;;4937518;29;20248;-65
2024/01/08 16:37:41;;;;;;;0.40;0.40;;;-1.30;99.90;;;;;;4936662;29;20274;-64
2024/01/08 16:40:09;;;;;;;0.52;0.52;;;-1.40;99.90;;;;;;4937610;29;20420;-66
2024/01/08 16:42:34;;;;;;;0.50;0.50;;;-1.30;99.90;;;;;;4935540;29;20210;-66
2024/01/08 16:45:00;;;;;;;0.30;0.30;;;-1.40;99.90;;;;;;4937199;29;20582;-65
2024/01/08 16:47:26;;;;;;;0.40;0.40;;;-1.40;99.90;;;;;;4937166;29;20514;-64
2024/01/08 16:49:51;;;;;;;0.40;0.40;;;-1.40;99.90;;;;;;4937637;29;20256;-64
2024/01/08 16:52:18;;;;;;;0.40;0.40;;;-1.40;99.90;;;;;;4937308;29;20566;-64
2024/01/08 16:54:44;;;;;;;0.82;0.82;;;-1.40;99.90;;;;;;4936650;29;20179;-66
2024/01/08 16:57:11;;;;;;;0.40;0.40;;;-1.40;99.90;;;;;;4929252;29;20726;-65
2024/01/08 16:59:37;;;;;;;0.40;0.40;;;-1.40;99.90;;;;;;4918291;29;20187;-66
2024/01/08 17:02:03;;;;;;;0.40;0.40;;;-1.40;99.90;;;;;;4920665;29;20654;-64
2024/01/08 17:04:28;;;;;;;0.40;0.40;;;-1.40;99.90;;;;;;4936803;29;20175;-65
2024/01/08 17:06:54;;;;;;;0.40;0.40;;;-1.40;99.90;;;;;;4936605;29;20294;-66
2024/01/08 17:09:20;;;;;;;0.40;0.40;;;-1.40;99.90;;;;;;4936938;29;20197;-65
2024/01/08 17:11:45;;;;;;;0.40;0.40;;;-1.40;99.90;;;;;;4934732;29;20183;-64
2024/01/08 17:14:11;;;;;;;0.40;0.40;;;-1.40;99.90;;;;;;4922150;29;20704;-68
2024/01/08 17:16:37;;;;;;;0.40;0.40;;;-1.40;99.90;;;;;;4929457;29;20673;-64
2024/01/08 17:19:02;;;;;;;0.40;0.40;;;-1.40;99.90;;;;;;4937031;29;20196;-64
2024/01/08 17:21:28;;;;;;;0.50;0.50;;;-1.40;99.90;;;;;;4921003;29;20184;-64
2024/01/08 17:23:54;;;;;;;0.40;0.40;;;-1.40;99.90;;;;;;4917525;29;20259;-64
2024/01/08 17:26:20;;;;;;;0.47;0.47;;;-1.40;99.90;;;;;;4916215;29;20216;-66
2024/01/08 17:28:45;;;;;;;0.40;0.40;;;-1.40;99.90;;;;;;4935488;29;20425;-64
2024/01/08 17:31:11;;;;;;;0.40;0.40;;;-1.40;99.90;;;;;;4935981;29;21015;-65
2024/01/08 17:33:37;;;;;;;0.40;0.40;;;-1.40;99.90;;;;;;4935703;29;20197;-63
2024/01/08 17:36:05;;;;;;;0.40;0.40;;;-1.40;99.90;;;;;;4935128;29;20215;-64
2024/01/08 17:38:32;;;;;;;0.40;0.40;;;-1.40;99.90;;;;;;4933818;29;20192;-65
2024/01/08 17:40:59;;;;;;;0.40;0.40;;;-1.40;99.90;;;;;;4934515;29;20176;-68
2024/01/08 17:43:30;;;;;;;0.40;0.40;;;-1.30;99.90;;;;;;4926454;29;20232;-66
2024/01/08 17:45:56;;;;;;;0.40;0.40;;;-1.40;99.90;;;;;;4917445;29;20194;-65
2024/01/08 17:48:22;;;;;;;0.43;0.43;;;-1.40;99.90;;;;;;4919601;29;20207;-63
2024/01/08 17:50:47;;;;;;;0.50;0.50;;;-1.40;99.90;;;;;;4926793;29;20185;-64
2024/01/08 17:53:13;;;;;;;0.40;0.40;;;-1.40;99.90;;;;;;4951619;29;20191;-63